Check out our new PWSWeather beta!
PWSweather.com
Personal Weather Stations
Station Observations
PICKERING
North Yorkshire, PickeringGB

North YorkshirePickeringGB

Lat: 54.2494, Lon: -0.7725

Elevation: 192

Station Type: Oregon Scientific WMR100

High Low Average
Temperature 38.3°F3.5°C 30.2°F-1.0°C 36.0°F2.2°C
Dew Point 33.8°F1.0°C 19.4°F-7.0°C 29.6°F-1.3°C
Winds 11.1 mph 17.9 kmh Calm Calm 6.0 mph NNE9.7 kmh NNE
Wind Gusts 15.4 mph24.8 kmh -- 9.0 mph14.5 kmh
Humidity 82% 69% 76%
Pressure 29.62 in1003.0 mb 29.06 in984.1 mb -
Precipitation 0.52 in13.2 mm - -
Hour Temp Dew Point Humidity Winds Wind Gusts Pressure Precip Precip Rate Daily Precip Total
12:00 AM 30.2°F-1.0°C 19.4°F-7.0°C 69% Calm Calm -- 29.62 in1003.0 mb 0.00 in0.0 mm 0.00 in0.0 mm 0.00 in0.0 mm
12:10 AM 30.4°F-0.9°C 21.2°F-6.0°C 70% 0.2 mph NNE0.3 kmh NNE 2.5 mph4.0 kmh 29.59 in1002.0 mb 0.00 in0.0 mm 0.00 in0.0 mm 0.00 in0.0 mm
12:20 AM 30.6°F-0.8°C 21.2°F-6.0°C 70% 1.8 mph NNE2.9 kmh NNE 3.6 mph5.8 kmh 29.59 in1002.0 mb 0.00 in0.0 mm 0.00 in0.0 mm 0.00 in0.0 mm
12:30 AM 30.4°F-0.9°C 21.2°F-6.0°C 70% 2.3 mph NNE3.7 kmh NNE 3.4 mph5.5 kmh 29.59 in1002.0 mb 0.00 in0.0 mm 0.00 in0.0 mm 0.00 in0.0 mm
12:40 AM 31.1°F-0.5°C 21.2°F-6.0°C 70% 3.3 mph NE5.3 kmh NE 5.8 mph9.3 kmh 29.56 in1001.0 mb 0.00 in0.0 mm 0.00 in0.0 mm 0.00 in0.0 mm
12:50 AM 31.5°F-0.3°C 21.2°F-6.0°C 70% 1.7 mph ENE2.7 kmh ENE 3.4 mph5.5 kmh 29.56 in1001.0 mb 0.00 in0.0 mm 0.00 in0.0 mm 0.00 in0.0 mm
01:00 AM 32.0°F0.0°C 23.0°F-5.0°C 71% 2.7 mph ENE4.3 kmh ENE 3.4 mph5.5 kmh 29.53 in1000.0 mb 0.00 in0.0 mm 0.00 in0.0 mm 0.00 in0.0 mm
01:10 AM 33.1°F0.6°C 24.8°F-4.0°C 70% 3.7 mph NE6.0 kmh NE 5.6 mph9.0 kmh 29.53 in1000.0 mb 0.00 in0.0 mm 0.00 in0.0 mm 0.00 in0.0 mm
01:20 AM 33.4°F0.8°C 24.8°F-4.0°C 70% 4.0 mph NNE6.4 kmh NNE 7.4 mph11.9 kmh 29.53 in1000.0 mb 0.00 in0.0 mm 0.00 in0.0 mm 0.00 in0.0 mm
01:30 AM 34.0°F1.1°C 24.8°F-4.0°C 70% 5.3 mph N8.5 kmh N 8.5 mph13.7 kmh 29.50 in999.0 mb 0.00 in0.0 mm 0.00 in0.0 mm 0.00 in0.0 mm
01:40 AM 34.7°F1.5°C 26.6°F-3.0°C 70% 6.7 mph N10.8 kmh N 8.7 mph14.0 kmh 29.50 in999.0 mb 0.00 in0.0 mm 0.00 in0.0 mm 0.00 in0.0 mm
01:50 AM 34.7°F1.5°C 26.6°F-3.0°C 70% 7.1 mph N11.4 kmh N 12.5 mph20.1 kmh 29.50 in999.0 mb 0.00 in0.0 mm 0.00 in0.0 mm 0.00 in0.0 mm
02:00 AM 34.7°F1.5°C 26.6°F-3.0°C 70% 6.6 mph N10.6 kmh N 10.5 mph16.9 kmh 29.50 in999.0 mb 0.00 in0.0 mm 0.00 in0.0 mm 0.00 in0.0 mm
02:10 AM 34.5°F1.4°C 26.6°F-3.0°C 70% 4.8 mph N7.7 kmh N 8.5 mph13.7 kmh 29.47 in998.0 mb 0.00 in0.0 mm 0.00 in0.0 mm 0.00 in0.0 mm
02:20 AM 34.7°F1.5°C 26.6°F-3.0°C 70% 5.8 mph N9.3 kmh N 8.5 mph13.7 kmh 29.47 in998.0 mb 0.00 in0.0 mm 0.00 in0.0 mm 0.00 in0.0 mm
02:30 AM 34.7°F1.5°C 26.6°F-3.0°C 70% 5.7 mph N9.2 kmh N 7.8 mph12.6 kmh 29.45 in997.3 mb 0.00 in0.0 mm 0.00 in0.0 mm 0.00 in0.0 mm
02:40 AM 34.9°F1.6°C 26.6°F-3.0°C 71% 6.2 mph NNE10.0 kmh NNE 9.8 mph15.8 kmh 29.45 in997.3 mb 0.00 in0.0 mm 0.00 in0.0 mm 0.00 in0.0 mm
02:50 AM 34.9°F1.6°C 26.6°F-3.0°C 71% 6.1 mph N9.8 kmh N 7.6 mph12.2 kmh 29.45 in997.3 mb 0.00 in0.0 mm 0.00 in0.0 mm 0.00 in0.0 mm
03:00 AM 35.1°F1.7°C 26.6°F-3.0°C 71% 5.9 mph N9.5 kmh N 8.7 mph14.0 kmh 29.41 in995.9 mb 0.00 in0.0 mm 0.00 in0.0 mm 0.00 in0.0 mm
03:10 AM 35.2°F1.8°C 26.6°F-3.0°C 72% 5.2 mph N8.4 kmh N 8.5 mph13.7 kmh 29.39 in995.3 mb 0.00 in0.0 mm 0.00 in0.0 mm 0.00 in0.0 mm
03:20 AM 35.8°F2.1°C 28.4°F-2.0°C 72% 6.7 mph NNE10.8 kmh NNE 8.7 mph14.0 kmh 29.39 in995.3 mb 0.00 in0.0 mm 0.00 in0.0 mm 0.00 in0.0 mm
03:30 AM 36.0°F2.2°C 28.4°F-2.0°C 72% 6.8 mph NNE10.9 kmh NNE 7.8 mph12.6 kmh 29.39 in995.3 mb 0.00 in0.0 mm 0.00 in0.0 mm 0.00 in0.0 mm
03:40 AM 36.1°F2.3°C 28.4°F-2.0°C 73% 6.3 mph N10.1 kmh N 7.8 mph12.6 kmh 29.36 in994.2 mb 0.00 in0.0 mm 0.00 in0.0 mm 0.00 in0.0 mm
03:50 AM 36.1°F2.3°C 30.2°F-1.0°C 74% 6.4 mph N10.3 kmh N 9.2 mph14.8 kmh 29.36 in994.2 mb 0.00 in0.0 mm 0.00 in0.0 mm 0.00 in0.0 mm
04:00 AM 36.1°F2.3°C 30.2°F-1.0°C 74% 6.1 mph NNE9.8 kmh NNE 8.7 mph14.0 kmh 29.36 in994.2 mb 0.00 in0.0 mm 0.00 in0.0 mm 0.00 in0.0 mm
04:10 AM 36.3°F2.4°C 30.2°F-1.0°C 75% 5.2 mph NNE8.4 kmh NNE 11.0 mph17.7 kmh 29.33 in993.2 mb 0.00 in0.0 mm 0.00 in0.0 mm 0.00 in0.0 mm
04:20 AM 36.5°F2.5°C 30.2°F-1.0°C 75% 6.0 mph NE9.7 kmh NE 7.8 mph12.6 kmh 29.33 in993.2 mb 0.00 in0.0 mm 0.00 in0.0 mm 0.00 in0.0 mm
04:30 AM 36.7°F2.6°C 30.2°F-1.0°C 75% 5.7 mph NE9.2 kmh NE 8.5 mph13.7 kmh 29.30 in992.2 mb 0.00 in0.0 mm 0.00 in0.0 mm 0.00 in0.0 mm
04:40 AM 36.9°F2.7°C 30.2°F-1.0°C 75% 7.0 mph N11.3 kmh N 15.4 mph24.8 kmh 29.27 in991.2 mb 0.00 in0.0 mm 0.00 in0.0 mm 0.00 in0.0 mm
04:50 AM 36.9°F2.7°C 30.2°F-1.0°C 76% 7.6 mph N12.2 kmh N 11.2 mph18.0 kmh 29.27 in991.2 mb 0.06 in1.5 mm 0.36 in9.1 mm 0.06 in1.5 mm
05:00 AM 36.9°F2.7°C 30.2°F-1.0°C 76% 8.9 mph N14.3 kmh N 13.2 mph21.2 kmh 29.27 in991.2 mb 0.06 in1.5 mm 0.00 in0.0 mm 0.06 in1.5 mm
05:10 AM 36.9°F2.7°C 30.2°F-1.0°C 77% 7.5 mph N12.1 kmh N 10.5 mph16.9 kmh 29.24 in990.2 mb 0.11 in2.8 mm 0.30 in7.6 mm 0.11 in2.8 mm
05:20 AM 37.0°F2.8°C 32.0°F0.0°C 77% 7.9 mph N12.7 kmh N 12.8 mph20.6 kmh 29.24 in990.2 mb 0.11 in2.8 mm 0.00 in0.0 mm 0.11 in2.8 mm
05:30 AM 37.2°F2.9°C 32.0°F0.0°C 78% 9.3 mph N15.0 kmh N 12.5 mph20.1 kmh 29.24 in990.2 mb 0.17 in4.3 mm 0.36 in9.1 mm 0.17 in4.3 mm
05:40 AM 37.4°F3.0°C 32.0°F0.0°C 78% 9.5 mph N15.3 kmh N 13.9 mph22.4 kmh 29.21 in989.2 mb 0.17 in4.3 mm 0.00 in0.0 mm 0.17 in4.3 mm
05:50 AM 37.4°F3.0°C 32.0°F0.0°C 79% 9.5 mph N15.3 kmh N 13.0 mph20.9 kmh 29.21 in989.2 mb 0.11 in2.8 mm 0.00 in0.0 mm 0.17 in4.3 mm
06:00 AM 37.2°F2.9°C 32.0°F0.0°C 79% 7.8 mph N12.6 kmh N 12.1 mph19.5 kmh 29.18 in988.1 mb 0.17 in4.3 mm 0.07 in1.8 mm 0.22 in5.6 mm
06:10 AM 37.2°F2.9°C 32.0°F0.0°C 79% 10.4 mph N16.7 kmh N 12.8 mph20.6 kmh 29.15 in987.1 mb 0.11 in2.8 mm 0.00 in0.0 mm 0.22 in5.6 mm
06:20 AM 37.4°F3.0°C 32.0°F0.0°C 79% 9.5 mph N15.3 kmh N 15.4 mph24.8 kmh 29.15 in987.1 mb 0.11 in2.8 mm 0.00 in0.0 mm 0.22 in5.6 mm
06:30 AM 37.6°F3.1°C 32.0°F0.0°C 80% 9.9 mph N15.9 kmh N 14.1 mph22.7 kmh 29.15 in987.1 mb 0.06 in1.5 mm 0.00 in0.0 mm 0.22 in5.6 mm
06:40 AM 37.6°F3.1°C 32.0°F0.0°C 80% 8.2 mph N13.2 kmh N 12.8 mph20.6 kmh 29.15 in987.1 mb 0.11 in2.8 mm 0.30 in7.6 mm 0.28 in7.1 mm
06:50 AM 37.8°F3.2°C 33.8°F1.0°C 80% 9.4 mph N15.1 kmh N 15.2 mph24.5 kmh 29.15 in987.1 mb 0.11 in2.8 mm 0.00 in0.0 mm 0.28 in7.1 mm
07:00 AM 38.1°F3.4°C 33.8°F1.0°C 80% 11.1 mph NNE17.9 kmh NNE 14.8 mph23.8 kmh 29.15 in987.1 mb 0.06 in1.5 mm 0.00 in0.0 mm 0.28 in7.1 mm
07:10 AM 38.1°F3.4°C 33.8°F1.0°C 80% 10.2 mph N16.4 kmh N 14.3 mph23.0 kmh 29.12 in986.1 mb 0.06 in1.5 mm 0.00 in0.0 mm 0.28 in7.1 mm
07:20 AM 38.3°F3.5°C 33.8°F1.0°C 80% 8.8 mph N14.2 kmh N 12.3 mph19.8 kmh 29.12 in986.1 mb 0.06 in1.5 mm 0.00 in0.0 mm 0.28 in7.1 mm
07:30 AM 38.3°F3.5°C 33.8°F1.0°C 81% 8.8 mph N14.2 kmh N 12.1 mph19.5 kmh 29.12 in986.1 mb 0.13 in3.3 mm 0.42 in10.7 mm 0.35 in8.9 mm
07:40 AM 38.3°F3.5°C 33.8°F1.0°C 81% 8.7 mph N14.0 kmh N 10.7 mph17.2 kmh 29.09 in985.1 mb 0.07 in1.8 mm 0.00 in0.0 mm 0.35 in8.9 mm
07:50 AM 38.1°F3.4°C 33.8°F1.0°C 81% 7.6 mph N12.2 kmh N 10.7 mph17.2 kmh 29.09 in985.1 mb 0.07 in1.8 mm 0.00 in0.0 mm 0.35 in8.9 mm
08:00 AM 37.9°F3.3°C 33.8°F1.0°C 81% 8.2 mph N13.2 kmh N 10.7 mph17.2 kmh 29.09 in985.1 mb 0.07 in1.8 mm 0.00 in0.0 mm 0.35 in8.9 mm
08:10 AM 37.9°F3.3°C 33.8°F1.0°C 81% 7.3 mph N11.7 kmh N 12.1 mph19.5 kmh 29.09 in985.1 mb 0.13 in3.3 mm 0.36 in9.1 mm 0.41 in10.4 mm
08:20 AM 37.9°F3.3°C 33.8°F1.0°C 81% 8.0 mph NNE12.9 kmh NNE 13.6 mph21.9 kmh 29.09 in985.1 mb 0.13 in3.3 mm 0.00 in0.0 mm 0.41 in10.4 mm
08:30 AM 37.8°F3.2°C 33.8°F1.0°C 81% 6.4 mph N10.3 kmh N 8.7 mph14.0 kmh 29.09 in985.1 mb 0.06 in1.5 mm 0.00 in0.0 mm 0.41 in10.4 mm
08:40 AM 37.8°F3.2°C 33.8°F1.0°C 81% 6.0 mph N9.7 kmh N 7.8 mph12.6 kmh 29.06 in984.1 mb 0.11 in2.8 mm 0.30 in7.6 mm 0.46 in11.7 mm
08:50 AM 37.8°F3.2°C 33.8°F1.0°C 81% 3.6 mph NNE5.8 kmh NNE 7.4 mph11.9 kmh 29.06 in984.1 mb 0.11 in2.8 mm 0.00 in0.0 mm 0.46 in11.7 mm
09:00 AM 37.8°F3.2°C 33.8°F1.0°C 81% 3.1 mph N5.0 kmh N 3.8 mph6.1 kmh 29.06 in984.1 mb 0.11 in2.8 mm 0.00 in0.0 mm 0.46 in11.7 mm
09:10 AM 37.8°F3.2°C 33.8°F1.0°C 81% 3.1 mph NE5.0 kmh NE 4.0 mph6.4 kmh 29.06 in984.1 mb 0.06 in1.5 mm 0.00 in0.0 mm 0.46 in11.7 mm
09:20 AM 37.9°F3.3°C 33.8°F1.0°C 81% 2.1 mph NNE3.4 kmh NNE 3.1 mph5.0 kmh 29.06 in984.1 mb 0.06 in1.5 mm 0.00 in0.0 mm 0.46 in11.7 mm
09:30 AM 37.9°F3.3°C 33.8°F1.0°C 81% 2.6 mph NE4.2 kmh NE 3.8 mph6.1 kmh 29.06 in984.1 mb 0.06 in1.5 mm 0.00 in0.0 mm 0.46 in11.7 mm
09:40 AM 37.9°F3.3°C 33.8°F1.0°C 82% Calm Calm -- 29.06 in984.1 mb 0.06 in1.5 mm 0.00 in0.0 mm 0.52 in13.2 mm
09:50 AM 38.1°F3.4°C 33.8°F1.0°C 82% 0.2 mph ENE0.3 kmh ENE 2.0 mph3.2 kmh 29.06 in984.1 mb 0.06 in1.5 mm 0.00 in0.0 mm 0.52 in13.2 mm